Time;durP1;ratioP1;P1;durP2;ratioP2;P2;SDS_P1;SDS_P2;PMS_P1;PMS_P2;Temp;Humidity;BMP_temperature;BMP_pressure;BME280_temperature;BME280_humidity;BME280_pressure;Samples;Min_cycle;Max_cycle;Signal;HPM_P1;HPM_P2
2024/03/15 00:00:34;;;;;;;14.10;8.45;;;;;;;8.92;100.00;100182.16;5011990;28;20424;-79
2024/03/15 00:03:10;;;;;;;17.42;8.15;;;;;;;8.84;100.00;100187.09;5021910;28;20424;-78
2024/03/15 00:05:44;;;;;;;13.70;8.35;;;;;;;8.80;100.00;100177.09;5031050;28;20419;-78
2024/03/15 00:08:12;;;;;;;13.05;7.70;;;;;;;8.73;100.00;100171.97;5030855;28;20489;-78
2024/03/15 00:10:41;;;;;;;15.07;8.00;;;;;;;8.75;100.00;100169.78;5012762;28;20429;-79
2024/03/15 00:13:11;;;;;;;15.73;8.70;;;;;;;8.76;100.00;100170.59;5027619;28;20415;-80
2024/03/15 00:15:40;;;;;;;15.35;8.75;;;;;;;8.72;100.00;100162.19;5026557;28;20423;-78
2024/03/15 00:18:16;;;;;;;14.77;8.43;;;;;;;8.73;100.00;100158.41;5019634;28;20443;-77
2024/03/15 00:20:45;;;;;;;17.60;8.70;;;;;;;8.77;100.00;100167.59;5008254;28;20424;-79
2024/03/15 00:23:19;;;;;;;15.00;8.35;;;;;;;8.69;100.00;100157.34;5012573;28;20421;-78
2024/03/15 00:25:47;;;;;;;15.05;8.10;;;;;;;8.60;100.00;100165.22;5040466;28;20407;-78
2024/03/15 00:28:21;;;;;;;13.07;8.02;;;;;;;8.75;100.00;100158.91;5044625;28;20442;-78
2024/03/15 00:30:55;;;;;;;14.90;8.13;;;;;;;8.68;100.00;100158.41;5035002;28;20414;-78
2024/03/15 00:33:28;;;;;;;13.95;8.13;;;;;;;8.73;100.00;100160.28;5019451;28;20414;-78
2024/03/15 00:35:56;;;;;;;13.85;8.25;;;;;;;8.67;100.00;100160.34;5014533;28;20418;-77
2024/03/15 00:38:30;;;;;;;16.67;8.25;;;;;;;8.74;100.00;100165.47;5009371;28;20424;-78
2024/03/15 00:40:58;;;;;;;13.73;7.70;;;;;;;8.66;100.00;100157.91;5015853;28;20422;-78
2024/03/15 00:43:32;;;;;;;15.15;8.40;;;;;;;8.68;100.00;100150.28;5018647;28;20428;-78
2024/03/15 00:46:00;;;;;;;13.57;8.25;;;;;;;8.63;100.00;100148.41;5023377;28;20939;-78
2024/03/15 00:48:28;;;;;;;14.15;7.78;;;;;;;8.71;100.00;100147.00;5018796;28;20417;-77
2024/03/15 00:51:03;;;;;;;15.25;8.05;;;;;;;8.64;100.00;100141.88;5031762;28;20778;-77
2024/03/15 00:53:36;;;;;;;15.23;8.70;;;;;;;8.63;100.00;100136.75;5034322;28;20426;-78
2024/03/15 00:56:10;;;;;;;14.38;8.10;;;;;;;8.57;100.00;100137.88;5014885;28;20420;-77
2024/03/15 00:58:38;;;;;;;13.77;7.68;;;;;;;8.59;100.00;100135.69;5011944;28;20413;-77
2024/03/15 01:01:07;;;;;;;14.83;8.20;;;;;;;8.57;100.00;100132.44;5010509;28;20424;-79
2024/03/15 01:03:35;;;;;;;14.90;8.13;;;;;;;8.64;100.00;100135.66;5017028;28;20429;-77
2024/03/15 01:06:04;;;;;;;14.27;8.10;;;;;;;8.58;100.00;100137.59;5028308;28;20432;-78
2024/03/15 01:08:38;;;;;;;14.70;8.87;;;;;;;8.54;100.00;100120.25;5034757;28;20423;-77
2024/03/15 01:11:11;;;;;;;14.43;8.70;;;;;;;8.51;100.00;100123.53;5015059;28;20431;-78
2024/03/15 01:13:44;;;;;;;14.93;9.00;;;;;;;8.59;100.00;100120.25;5033347;28;20417;-77
2024/03/15 01:16:13;;;;;;;15.77;8.57;;;;;;;8.61;100.00;100126.19;5015364;28;20770;-77
2024/03/15 01:18:46;;;;;;;12.90;8.18;;;;;;;8.60;100.00;100119.13;5019091;28;20435;-78
2024/03/15 01:21:19;;;;;;;14.03;8.50;;;;;;;8.55;100.00;100115.63;5030391;28;20422;-79
2024/03/15 01:23:48;;;;;;;15.55;8.23;;;;;;;8.51;100.00;100110.78;5043459;28;20422;-79
2024/03/15 01:26:22;;;;;;;14.30;8.40;;;;;;;8.58;100.00;100115.09;5034611;28;20425;-78
2024/03/15 01:28:50;;;;;;;14.23;8.23;;;;;;;8.56;100.00;100115.38;5033557;28;20430;-78
2024/03/15 01:31:23;;;;;;;15.75;8.45;;;;;;;8.65;100.00;100118.31;5046081;28;20415;-77
2024/03/15 01:33:52;;;;;;;14.13;8.23;;;;;;;8.61;100.00;100109.91;5032711;28;20421;-78
2024/03/15 01:36:20;;;;;;;15.57;8.68;;;;;;;8.59;100.00;100106.69;5020735;28;20424;-78
2024/03/15 01:38:54;;;;;;;13.32;8.23;;;;;;;8.64;100.00;100103.09;5036172;28;20408;-78
2024/03/15 01:41:23;;;;;;;13.73;7.85;;;;;;;8.63;100.00;100099.59;5035678;28;20415;-78
2024/03/15 01:43:56;;;;;;;15.60;8.17;;;;;;;8.59;100.00;100095.81;5017878;28;21011;-79
2024/03/15 01:46:30;;;;;;;12.73;8.20;;;;;;;8.64;100.00;100094.97;5030840;28;20415;-78
2024/03/15 01:49:03;;;;;;;14.48;8.07;;;;;;;8.64;100.00;100095.78;5027509;28;20431;-77
2024/03/15 01:51:36;;;;;;;16.23;9.05;;;;;;;8.58;100.00;100098.81;5012173;28;20421;-77
2024/03/15 01:54:05;;;;;;;14.00;8.88;;;;;;;8.59;100.00;100090.41;5021494;28;20423;-78
2024/03/15 01:56:38;;;;;;;13.05;8.48;;;;;;;8.59;100.00;100090.41;5026326;28;20423;-77
2024/03/15 01:59:07;;;;;;;13.50;8.30;;;;;;;8.67;100.00;100083.56;5017366;28;20429;-77
2024/03/15 02:01:40;;;;;;;13.63;8.52;;;;;;;8.57;100.00;100086.34;5019677;28;20925;-77
2024/03/15 02:04:15;;;;;;;16.38;8.25;;;;;;;8.63;100.00;100086.03;5015162;28;20436;-78
2024/03/15 02:06:48;;;;;;;17.73;8.80;;;;;;;8.65;100.00;100089.25;5017096;28;20455;-77
2024/03/15 02:09:19;;;;;;;15.15;8.35;;;;;;;8.63;100.00;100091.47;5016540;28;21009;-77
2024/03/15 02:11:53;;;;;;;14.00;8.20;;;;;;;8.62;100.00;100084.41;5043375;28;20425;-79
2024/03/15 02:14:22;;;;;;;13.80;8.68;;;;;;;8.54;100.00;100085.00;5029908;28;20428;-77
2024/03/15 02:16:56;;;;;;;15.65;8.15;;;;;;;8.52;100.00;100084.47;5008443;28;20440;-77
2024/03/15 02:19:29;;;;;;;14.73;8.27;;;;;;;8.47;100.00;100079.09;5033880;28;20416;-79
2024/03/15 02:21:58;;;;;;;15.02;8.48;;;;;;;8.43;100.00;100081.50;5033397;28;20465;-78
2024/03/15 02:24:26;;;;;;;15.40;8.40;;;;;;;8.42;100.00;100070.94;5016481;28;20421;-79
2024/03/15 02:26:54;;;;;;;16.23;8.60;;;;;;;8.33;100.00;100071.53;5028986;28;20409;-78
2024/03/15 02:29:25;;;;;;;13.68;8.55;;;;;;;8.27;100.00;100078.09;5025118;28;20758;-77
2024/03/15 02:31:58;;;;;;;13.75;8.18;;;;;;;8.26;100.00;100064.78;5022706;28;20424;-78
2024/03/15 02:34:27;;;;;;;15.65;9.18;;;;;;;8.21;100.00;100062.91;5028146;28;20435;-77
2024/03/15 02:36:56;;;;;;;13.50;8.68;;;;;;;8.15;100.00;100059.44;5019399;28;20431;-78
2024/03/15 02:39:24;;;;;;;14.05;8.50;;;;;;;8.08;100.00;100064.34;5018589;28;20419;-78
2024/03/15 02:41:53;;;;;;;15.95;9.10;;;;;;;8.05;100.00;100059.50;5013660;28;20420;-79
2024/03/15 02:44:27;;;;;;;15.07;9.02;;;;;;;8.01;100.00;100061.13;5026793;28;20424;-77
2024/03/15 02:46:56;;;;;;;15.98;9.18;;;;;;;7.99;100.00;100066.81;5019819;28;20419;-77
2024/03/15 02:49:25;;;;;;;15.73;9.07;;;;;;;7.92;100.00;100068.22;5032418;28;20434;-78
2024/03/15 02:51:58;;;;;;;14.18;9.18;;;;;;;7.85;100.00;100073.13;5019520;28;20424;-78
2024/03/15 02:54:32;;;;;;;15.27;8.90;;;;;;;7.78;100.00;100071.50;5034522;28;20424;-77
2024/03/15 02:57:06;;;;;;;15.60;9.40;;;;;;;7.90;100.00;100071.19;5020194;28;20427;-77
2024/03/15 02:59:39;;;;;;;15.55;8.82;;;;;;;7.91;100.00;100072.00;5017307;28;20452;-77
2024/03/15 03:02:08;;;;;;;17.10;9.52;;;;;;;7.85;100.00;100071.22;5016600;28;20421;-78
2024/03/15 03:04:42;;;;;;;15.00;9.23;;;;;;;7.85;100.00;100070.41;5023359;28;20428;-77
2024/03/15 03:07:15;;;;;;;16.27;9.52;;;;;;;7.88;100.00;100061.72;5033139;28;20427;-78
2024/03/15 03:09:44;;;;;;;17.85;9.63;;;;;;;7.80;100.00;100063.09;5009771;28;20419;-77
2024/03/15 03:12:13;;;;;;;15.63;9.90;;;;;;;7.66;100.00;100057.44;5011892;28;20443;-78
2024/03/15 03:14:47;;;;;;;17.90;9.75;;;;;;;7.73;100.00;100051.75;5031387;28;20420;-78
2024/03/15 03:17:16;;;;;;;18.17;9.70;;;;;;;7.69;100.00;100054.19;5035914;28;20399;-77
2024/03/15 03:19:49;;;;;;;16.60;9.60;;;;;;;7.59;100.00;100049.63;5034391;28;20426;-77
2024/03/15 03:22:18;;;;;;;15.80;9.20;;;;;;;7.56;100.00;100055.59;5023779;28;20737;-78
2024/03/15 03:24:51;;;;;;;17.20;10.00;;;;;;;7.51;100.00;100046.66;5010524;28;20421;-77
2024/03/15 03:27:24;;;;;;;17.77;9.02;;;;;;;7.47;100.00;100033.69;5028966;28;20423;-78
2024/03/15 03:29:58;;;;;;;16.10;9.68;;;;;;;7.43;100.00;100040.72;5031069;28;21206;-78
2024/03/15 03:32:26;;;;;;;17.42;10.00;;;;;;;7.54;100.00;100036.09;5025769;28;20429;-77
2024/03/15 03:35:01;;;;;;;16.23;9.50;;;;;;;7.49;100.00;100036.13;5033059;28;21185;-78
2024/03/15 03:37:29;;;;;;;17.13;9.63;;;;;;;7.49;100.00;100033.41;5018126;28;20423;-76
2024/03/15 03:39:57;;;;;;;17.73;10.18;;;;;;;7.55;100.00;100042.31;5038288;28;20433;-78
2024/03/15 03:42:26;;;;;;;17.90;10.23;;;;;;;7.43;100.00;100038.03;5034865;28;20408;-77
2024/03/15 03:44:59;;;;;;;17.30;10.13;;;;;;;7.54;100.00;100044.22;5032907;28;20420;-78
2024/03/15 03:47:32;;;;;;;17.90;10.17;;;;;;;7.46;100.00;100042.09;5041495;28;20427;-76
2024/03/15 03:50:02;;;;;;;16.27;10.00;;;;;;;7.33;100.00;100035.31;5034475;28;20429;-77
2024/03/15 03:52:31;;;;;;;17.60;9.87;;;;;;;7.29;100.00;100034.25;5027487;28;20832;-79
2024/03/15 03:55:05;;;;;;;19.02;10.82;;;;;;;7.26;100.00;100035.59;5011815;28;20781;-78
2024/03/15 03:57:39;;;;;;;18.27;10.67;;;;;;;7.24;100.00;100021.56;5029644;28;20750;-77
2024/03/15 04:00:14;;;;;;;17.83;10.13;;;;;;;7.32;100.00;100022.91;5034492;28;20949;-78
2024/03/15 04:02:48;;;;;;;17.30;10.50;;;;;;;7.24;100.00;100034.28;5046152;28;20407;-80
2024/03/15 04:05:20;;;;;;;16.23;9.93;;;;;;;7.27;100.00;100021.00;5029593;28;20419;-77
2024/03/15 04:07:55;;;;;;;17.35;10.18;;;;;;;7.30;100.00;100027.75;5031000;28;20426;-79
2024/03/15 04:10:23;;;;;;;17.58;10.63;;;;;;;7.37;100.00;100024.78;5028072;28;20419;-78
2024/03/15 04:12:57;;;;;;;18.10;11.55;;;;;;;7.34;100.00;100015.31;5036616;28;20419;-77
2024/03/15 04:15:31;;;;;;;17.45;10.95;;;;;;;7.30;100.00;100020.44;5042460;28;20420;-77
2024/03/15 04:18:05;;;;;;;18.60;10.82;;;;;;;7.33;100.00;100019.09;5041591;28;20423;-77
2024/03/15 04:20:33;;;;;;;19.15;11.15;;;;;;;7.30;100.00;100016.94;5034625;28;20914;-76
2024/03/15 04:23:01;;;;;;;18.92;11.52;;;;;;;7.27;100.00;100022.91;5046070;28;20430;-76
2024/03/15 04:25:30;;;;;;;18.43;10.57;;;;;;;7.20;100.00;100023.19;5039052;28;20419;-77
2024/03/15 04:27:58;;;;;;;19.05;10.80;;;;;;;7.18;100.00;100030.78;5030698;28;20421;-78
2024/03/15 04:30:32;;;;;;;18.40;10.90;;;;;;;7.10;100.00;100034.84;5019326;28;20431;-78
2024/03/15 04:33:01;;;;;;;17.85;10.63;;;;;;;7.12;100.00;100038.06;5052766;28;20888;-77
2024/03/15 04:35:34;;;;;;;19.30;10.63;;;;;;;7.08;100.00;100028.06;5044757;28;20419;-78
2024/03/15 04:38:08;;;;;;;15.73;10.38;;;;;;;7.15;100.00;100021.31;5037259;28;20418;-79
2024/03/15 04:40:37;;;;;;;18.15;10.88;;;;;;;7.13;100.00;100014.53;5060111;28;20413;-80
2024/03/15 04:43:11;;;;;;;18.02;10.77;;;;;;;7.30;100.00;100019.63;5026606;28;20430;-77
2024/03/15 04:45:44;;;;;;;18.35;11.20;;;;;;;7.30;100.00;100017.72;5042017;28;20904;-79
2024/03/15 04:48:17;;;;;;;17.23;11.35;;;;;;;7.36;100.00;100015.84;5020894;28;20428;-79
2024/03/15 04:50:51;;;;;;;17.95;10.57;;;;;;;7.40;100.00;100014.22;5019288;28;20430;-77
2024/03/15 04:53:24;;;;;;;17.80;11.00;;;;;;;7.47;100.00;100011.19;5015361;28;20417;-77
2024/03/15 04:55:58;;;;;;;18.55;10.93;;;;;;;7.53;100.00;100006.59;5030070;28;20764;-76
2024/03/15 04:58:28;;;;;;;17.70;10.67;;;;;;;7.52;100.00;100018.50;5047227;28;20809;-79
2024/03/15 05:01:01;;;;;;;16.88;10.77;;;;;;;7.59;100.00;100009.00;5010096;28;20456;-77
2024/03/15 05:03:30;;;;;;;16.35;10.45;;;;;;;7.61;100.00;100009.53;5022214;28;20412;-79
2024/03/15 05:06:04;;;;;;;21.02;10.77;;;;;;;7.61;100.00;100006.00;5038284;28;20426;-77
2024/03/15 05:08:37;;;;;;;16.58;10.77;;;;;;;7.62;100.00;100005.75;5053716;28;20420;-79
2024/03/15 05:11:13;;;;;;;16.40;10.50;;;;;;;7.72;100.00;100006.78;5037016;28;20421;-77
2024/03/15 05:13:46;;;;;;;17.45;10.65;;;;;;;7.65;100.00;100010.59;5038318;28;20418;-77
2024/03/15 05:16:19;;;;;;;17.45;10.70;;;;;;;7.59;100.00;100000.88;5019664;28;20416;-79
2024/03/15 05:18:53;;;;;;;19.40;11.15;;;;;;;7.59;100.00;99998.16;5030325;28;20885;-78
2024/03/15 05:21:26;;;;;;;18.13;12.20;;;;;;;7.65;100.00;99994.38;5018676;28;20431;-77
2024/03/15 05:23:55;;;;;;;22.67;12.27;;;;;;;7.61;100.00;99989.75;5031417;28;20413;-78
2024/03/15 05:26:23;;;;;;;18.35;11.57;;;;;;;7.58;100.00;99985.72;5011984;28;20441;-79
2024/03/15 05:28:52;;;;;;;19.48;11.77;;;;;;;7.57;100.00;99994.13;5047440;28;20450;-77
2024/03/15 05:31:23;;;;;;;18.38;11.10;;;;;;;7.47;100.00;99997.66;5017132;28;20415;-78
2024/03/15 05:33:51;;;;;;;18.63;11.10;;;;;;;7.37;100.00;99986.88;5040628;28;20766;-77
2024/03/15 05:36:20;;;;;;;18.92;11.43;;;;;;;7.34;100.00;99992.84;5027818;28;20864;-77
2024/03/15 05:38:48;;;;;;;18.90;10.55;;;;;;;7.22;100.00;99996.66;5039759;28;20423;-77
2024/03/15 05:41:17;;;;;;;17.35;10.75;;;;;;;7.34;100.00;99992.84;5034283;28;20417;-77
2024/03/15 05:43:50;;;;;;;17.50;11.18;;;;;;;7.38;100.00;99999.34;5033025;28;20745;-78
2024/03/15 05:46:20;;;;;;;17.63;11.43;;;;;;;7.44;100.00;99995.50;5016690;28;20429;-79
2024/03/15 05:48:54;;;;;;;17.80;10.90;;;;;;;7.39;100.00;100003.63;5038252;28;20427;-79
2024/03/15 05:51:22;;;;;;;18.45;11.50;;;;;;;7.35;100.00;99992.56;5041503;28;20415;-78
2024/03/15 05:53:56;;;;;;;19.58;11.10;;;;;;;7.33;100.00;99992.00;5015286;28;20504;-77
2024/03/15 05:56:24;;;;;;;16.27;10.13;;;;;;;7.35;100.00;99987.16;5033527;28;20425;-80
2024/03/15 05:58:53;;;;;;;17.47;11.07;;;;;;;7.32;100.00;99990.41;5006021;28;20424;-79
2024/03/15 06:01:26;;;;;;;18.92;11.13;;;;;;;7.35;100.00;99999.84;5025077;28;20878;-78
2024/03/15 06:03:54;;;;;;;18.20;11.23;;;;;;;7.32;100.00;99995.84;5016568;28;20439;-78
2024/03/15 06:06:25;;;;;;;18.48;11.52;;;;;;;7.35;100.00;99995.28;5019549;28;20428;-78
2024/03/15 06:08:58;;;;;;;21.15;11.77;;;;;;;7.41;100.00;99994.16;5036372;28;20418;-79
2024/03/15 06:11:31;;;;;;;19.10;11.77;;;;;;;7.41;100.00;100009.59;5018774;28;20432;-78
2024/03/15 06:14:00;;;;;;;18.00;10.77;;;;;;;7.36;100.00;100012.31;5033668;28;20423;-77
2024/03/15 06:16:34;;;;;;;18.63;11.00;;;;;;;7.40;100.00;100011.50;5033268;28;21465;-78
2024/03/15 06:19:07;;;;;;;21.48;12.07;;;;;;;7.33;100.00;100008.25;5034990;28;20415;-77
2024/03/15 06:21:42;;;;;;;17.85;11.13;;;;;;;7.41;100.00;100006.91;5025803;28;20426;-79
2024/03/15 06:24:18;;;;;;;19.05;11.30;;;;;;;7.50;100.00;100005.25;5033105;28;20897;-77
2024/03/15 06:26:52;;;;;;;19.50;11.68;;;;;;;7.63;100.00;99999.22;5017991;28;20416;-79
2024/03/15 06:29:32;;;;;;;18.55;11.20;;;;;;;7.72;100.00;100009.50;5018508;28;20429;-78
2024/03/15 06:32:06;;;;;;;19.75;11.18;;;;;;;7.81;100.00;100007.84;5043744;28;21020;-77
2024/03/15 06:34:39;;;;;;;21.05;12.45;;;;;;;8.04;100.00;100006.38;5034868;28;20420;-79
2024/03/15 06:37:12;;;;;;;20.17;11.82;;;;;;;8.22;100.00;99996.78;5031341;28;20407;-79
2024/03/15 06:40:01;;;;;;;24.03;11.37;;;;;;;8.43;100.00;99996.66;5033132;28;20420;-77
2024/03/15 06:42:59;;;;;;;18.77;10.95;;;;;;;8.64;100.00;99986.47;5034016;28;20424;-77
2024/03/15 06:45:44;;;;;;;19.07;10.93;;;;;;;8.77;100.00;99996.69;5040080;28;20407;-77
2024/03/15 06:48:22;;;;;;;17.90;11.00;;;;;;;8.85;100.00;99990.63;5019965;28;20441;-77
2024/03/15 06:52:31;;;;;;;20.35;11.13;;;;;;;8.90;100.00;99997.13;5019675;28;20424;-77
2024/03/15 06:53:53;;;;;;;17.35;10.55;;;;;;;8.87;100.00;99990.34;5029379;28;20432;-77
2024/03/15 06:56:21;;;;;;;16.23;9.90;;;;;;;8.96;100.00;99999.50;5014541;28;20425;-79
2024/03/15 06:58:50;;;;;;;16.52;10.38;;;;;;;8.93;100.00;100000.06;5036785;28;20404;-78
2024/03/15 07:01:23;;;;;;;16.63;10.60;;;;;;;8.98;100.00;100001.94;5015027;28;20920;-78
2024/03/15 07:03:52;;;;;;;18.52;10.82;;;;;;;8.95;100.00;100002.47;5007983;28;20432;-77
2024/03/15 07:06:27;;;;;;;16.38;10.75;;;;;;;9.07;100.00;100007.53;5036018;28;20421;-78
2024/03/15 07:08:57;;;;;;;22.08;10.68;;;;;;;9.10;100.00;100015.94;5017218;28;20421;-78
2024/03/15 07:11:32;;;;;;;16.40;9.88;;;;;;;9.06;100.00;100008.63;5017129;28;20416;-79
2024/03/15 07:14:08;;;;;;;16.15;10.30;;;;;;;9.04;100.00;100005.41;5030132;28;20816;-78
2024/03/15 07:16:36;;;;;;;17.02;11.40;;;;;;;9.18;100.00;100014.47;5028622;28;20438;-78
2024/03/15 07:19:13;;;;;;;18.50;10.57;;;;;;;9.17;100.00;100002.81;5031561;28;20528;-77
2024/03/15 07:21:42;;;;;;;18.85;11.25;;;;;;;9.20;100.00;100009.59;5014566;28;20413;-78
2024/03/15 07:24:16;;;;;;;17.48;10.98;;;;;;;9.33;100.00;99999.94;5032355;28;20424;-79
2024/03/15 07:26:44;;;;;;;17.13;10.52;;;;;;;9.30;100.00;100005.94;5031096;28;20420;-79
2024/03/15 07:29:12;;;;;;;16.10;10.38;;;;;;;9.33;100.00;100008.88;5019282;28;20427;-79
2024/03/15 07:31:46;;;;;;;17.05;10.85;;;;;;;9.38;100.00;100012.63;5027002;28;20428;-79
2024/03/15 07:34:15;;;;;;;15.73;10.20;;;;;;;9.38;100.00;100008.03;5030051;28;20787;-79
2024/03/15 07:36:48;;;;;;;18.40;10.50;;;;;;;9.42;100.00;99992.78;5033016;28;20522;-80
2024/03/15 07:39:16;;;;;;;15.35;9.90;;;;;;;9.43;100.00;100001.72;5023349;28;20408;-80
2024/03/15 07:41:50;;;;;;;16.33;10.10;;;;;;;9.51;100.00;99999.22;5026940;28;20480;-79
2024/03/15 07:44:24;;;;;;;17.40;10.48;;;;;;;9.50;100.00;100000.31;5018471;28;20437;-79
2024/03/15 07:46:57;;;;;;;16.27;10.23;;;;;;;9.59;100.00;100014.03;5030781;28;20436;-77
2024/03/15 07:49:26;;;;;;;15.60;10.70;;;;;;;9.72;100.00;100009.81;5030570;28;20436;-80
2024/03/15 07:51:56;;;;;;;17.58;10.82;;;;;;;9.70;100.00;100007.38;5007494;28;20440;-78
2024/03/15 07:54:25;;;;;;;16.73;10.75;;;;;;;9.88;100.00;100008.53;5020695;28;20431;-79
2024/03/15 07:56:58;;;;;;;17.55;10.23;;;;;;;9.91;100.00;100012.56;5032209;28;20424;-79
2024/03/15 07:59:26;;;;;;;15.65;10.15;;;;;;;10.16;100.00;100000.56;5014207;28;20427;-79
2024/03/15 08:01:55;;;;;;;15.48;10.15;;;;;;;10.19;100.00;100007.28;5007858;28;20421;-82
2024/03/15 08:04:25;;;;;;;16.10;10.25;;;;;;;10.40;100.00;100007.03;5016707;28;20419;-78
2024/03/15 08:06:59;;;;;;;16.60;9.98;;;;;;;10.63;100.00;100010.75;5027523;28;20425;-80
2024/03/15 08:09:32;;;;;;;15.77;9.80;;;;;;;10.70;100.00;100003.03;5016614;28;20908;-80
2024/03/15 08:12:06;;;;;;;14.93;9.73;;;;;;;10.80;100.00;100000.16;5033769;28;20412;-81
2024/03/15 08:14:39;;;;;;;15.13;9.23;;;;;;;10.99;100.00;100002.00;5030716;28;20439;-79
2024/03/15 08:17:14;;;;;;;15.68;9.95;;;;;;;11.03;100.00;100001.13;5030474;28;20428;-78
2024/03/15 08:19:42;;;;;;;17.42;10.10;;;;;;;11.15;100.00;99997.09;5029115;28;20419;-78
2024/03/15 08:22:10;;;;;;;17.80;9.35;;;;;;;11.10;100.00;99997.19;5016993;28;20440;-79
2024/03/15 08:24:39;;;;;;;13.90;8.90;;;;;;;11.27;100.00;100002.88;5028297;28;20444;-80
2024/03/15 08:27:07;;;;;;;15.40;9.75;;;;;;;11.24;100.00;99995.28;4988947;28;20427;-80
2024/03/15 08:29:41;;;;;;;14.77;9.13;;;;;;;11.36;100.00;99995.59;5013799;28;20996;-80
2024/03/15 08:32:11;;;;;;;18.08;9.68;;;;;;;11.49;100.00;99987.72;5008480;28;20419;-83
2024/03/15 08:34:45;;;;;;;15.63;9.57;;;;;;;11.50;100.00;99994.78;4996553;28;20451;-80
2024/03/15 08:37:13;;;;;;;16.40;8.70;;;;;;;11.45;100.00;99994.88;5010687;28;20426;-84
2024/03/15 08:39:46;;;;;;;14.38;9.10;;;;;;;11.46;100.00;99994.59;5000899;28;20453;-82
2024/03/15 08:42:15;;;;;;;13.57;8.90;;;;;;;11.63;100.00;99999.44;4993923;28;20419;-83
2024/03/15 08:44:48;;;;;;;14.23;9.15;;;;;;;11.71;100.00;99997.91;5009625;28;20436;-83
2024/03/15 08:47:23;;;;;;;14.48;8.65;;;;;;;11.91;100.00;99993.97;5014259;28;20434;-79
2024/03/15 08:49:52;;;;;;;15.55;9.05;;;;;;;12.07;100.00;99998.00;5017847;28;20427;-81
2024/03/15 08:52:25;;;;;;;16.77;9.63;;;;;;;12.11;100.00;99994.66;4999647;28;20431;-82
2024/03/15 08:54:54;;;;;;;16.10;8.82;;;;;;;12.27;100.00;99995.13;5015420;28;20424;-80
2024/03/15 08:57:27;;;;;;;17.10;9.35;;;;;;;12.56;100.00;99997.44;5003299;28;20446;-80
2024/03/15 08:59:57;;;;;;;16.75;9.32;;;;;;;12.50;100.00;100002.22;4997966;28;21014;-80
2024/03/15 09:02:30;;;;;;;16.08;9.80;;;;;;;12.51;100.00;100003.00;4998725;28;20462;-83
2024/03/15 09:05:06;;;;;;;14.75;9.13;;;;;;;12.56;100.00;99995.50;4998875;28;21462;-83
2024/03/15 09:07:41;;;;;;;13.07;8.82;;;;;;;12.59;100.00;99994.09;5018952;28;20506;-80
2024/03/15 09:10:13;;;;;;;14.30;8.70;;;;;;;12.71;100.00;99997.06;5015962;28;20423;-81
2024/03/15 09:12:47;;;;;;;14.07;8.88;;;;;;;12.69;100.00;99999.31;4999599;28;21092;-80
2024/03/15 09:15:16;;;;;;;15.02;9.00;;;;;;;12.68;100.00;99999.63;5014076;28;21362;-84
2024/03/15 09:17:50;;;;;;;13.80;8.65;;;;;;;12.69;100.00;99995.75;5020525;28;21792;-79
2024/03/15 09:20:27;;;;;;;14.65;8.63;;;;;;;12.68;100.00;99999.63;5002722;28;20423;-84
2024/03/15 09:22:56;;;;;;;14.00;8.60;;;;;;;12.85;100.00;100004.38;5018720;28;20786;-83
2024/03/15 09:25:26;;;;;;;14.30;8.40;;;;;;;12.90;100.00;99996.06;4995597;28;21123;-82
2024/03/15 09:28:00;;;;;;;14.02;8.77;;;;;;;13.00;100.00;99998.53;5005842;28;20438;-84
2024/03/15 09:30:29;;;;;;;16.20;8.73;;;;;;;13.19;100.00;99992.84;5021253;28;20426;-81
2024/03/15 09:32:58;;;;;;;13.52;8.90;;;;;;;13.29;100.00;99993.69;4999847;28;20601;-84
2024/03/15 09:35:26;;;;;;;14.43;8.73;;;;;;;13.43;100.00;99997.16;4996445;28;20447;-83
2024/03/15 09:37:54;;;;;;;13.70;8.52;;;;;;;13.60;100.00;100001.88;5000631;28;20440;-83
2024/03/15 09:40:25;;;;;;;14.55;8.55;;;;;;;13.60;100.00;100007.31;5002100;28;20436;-81
2024/03/15 09:42:53;;;;;;;13.95;8.40;;;;;;;13.53;100.00;100007.78;5001352;28;20447;-83
2024/03/15 09:45:27;;;;;;;13.30;8.73;;;;;;;13.41;100.00;100005.66;5008225;28;20416;-83
2024/03/15 09:47:55;;;;;;;14.60;8.30;;;;;;;13.39;100.00;100007.91;5021229;28;20925;-80
2024/03/15 09:50:31;;;;;;;12.75;8.35;;;;;;;13.50;100.00;100015.84;5017926;28;20432;-83
2024/03/15 09:53:04;;;;;;;13.52;7.95;;;;;;;13.46;100.00;100012.91;5004936;28;20439;-81
2024/03/15 09:55:38;;;;;;;13.90;8.23;;;;;;;13.35;100.00;100001.44;5002230;28;20446;-84
2024/03/15 09:58:07;;;;;;;13.53;8.40;;;;;;;13.30;100.00;100011.69;5000387;28;20435;-84
2024/03/15 10:00:35;;;;;;;13.65;8.30;;;;;;;13.20;100.00;100010.84;5019610;28;20436;-85
2024/03/15 10:03:04;;;;;;;13.73;8.30;;;;;;;13.17;100.00;100016.94;5003287;28;20424;-82
2024/03/15 10:05:37;;;;;;;13.07;8.52;;;;;;;12.95;100.00;100023.22;4998701;28;21709;-83
2024/03/15 10:08:06;;;;;;;14.48;8.30;;;;;;;12.97;100.00;100021.00;5012794;28;20427;-83
2024/03/15 10:10:41;;;;;;;12.20;8.13;;;;;;;12.85;100.00;100015.31;5002245;28;20432;-84
2024/03/15 10:13:13;;;;;;;12.77;8.15;;;;;;;12.86;100.00;100027.84;5014989;28;20442;-84
2024/03/15 10:15:45;;;;;;;16.50;8.20;;;;;;;12.75;100.00;100025.34;4999940;28;20455;-84
2024/03/15 10:18:14;;;;;;;15.43;8.90;;;;;;;12.67;100.00;100022.56;5021646;28;20442;-83
2024/03/15 10:20:47;;;;;;;14.07;8.75;;;;;;;12.77;100.00;100025.03;5034031;28;20900;-81
2024/03/15 10:23:21;;;;;;;18.53;9.70;;;;;;;12.76;100.00;100010.59;5005261;28;20427;-80
2024/03/15 10:25:54;;;;;;;14.00;7.85;;;;;;;12.71;100.00;100029.03;4979250;28;20407;-81
2024/03/15 10:28:28;;;;;;;12.95;8.52;;;;;;;12.69;100.00;100015.69;5016159;28;20423;-83
2024/03/15 10:30:59;;;;;;;15.27;8.50;;;;;;;12.73;100.00;100022.13;4997269;28;21942;-84
2024/03/15 10:33:33;;;;;;;15.05;8.50;;;;;;;12.81;100.00;100017.84;5007269;28;20892;-81
2024/03/15 10:36:08;;;;;;;13.83;9.17;;;;;;;13.12;100.00;100024.44;5002449;28;20432;-82
2024/03/15 10:38:36;;;;;;;12.00;8.25;;;;;;;13.16;100.00;100022.72;4997513;28;20941;-84
2024/03/15 10:41:05;;;;;;;13.65;7.93;;;;;;;13.36;100.00;100018.66;5013845;28;20412;-84
2024/03/15 10:43:39;;;;;;;13.00;8.13;;;;;;;13.50;100.00;100029.50;5022906;28;20439;-81
2024/03/15 10:46:12;;;;;;;13.63;8.27;;;;;;;13.19;100.00;100036.56;5016906;28;20426;-83
2024/03/15 10:48:46;;;;;;;14.02;8.45;;;;;;;13.08;100.00;100037.94;5016096;28;20419;-83
2024/03/15 10:51:19;;;;;;;13.80;8.48;;;;;;;13.08;100.00;100044.22;4996276;28;20418;-82
2024/03/15 10:53:53;;;;;;;17.40;8.60;;;;;;;12.86;100.00;100045.03;5001352;28;20436;-80
2024/03/15 10:56:21;;;;;;;17.17;8.60;;;;;;;12.75;100.00;100049.94;4996018;28;20443;-80
2024/03/15 10:58:55;;;;;;;18.05;9.73;;;;;;;12.54;100.00;100049.59;5002045;28;20432;-83
2024/03/15 11:01:24;;;;;;;15.38;10.25;;;;;;;12.34;100.00;100058.25;5012937;28;20435;-83
2024/03/15 11:03:52;;;;;;;16.35;9.65;;;;;;;12.32;100.00;100050.38;4998299;28;21328;-82
2024/03/15 11:06:20;;;;;;;15.97;9.77;;;;;;;12.23;100.00;100050.28;5000722;28;20443;-83
2024/03/15 11:08:54;;;;;;;18.42;9.90;;;;;;;12.10;100.00;100053.03;4996353;28;20443;-82
2024/03/15 11:11:27;;;;;;;16.03;10.07;;;;;;;11.87;100.00;100052.94;5004635;28;20444;-81
2024/03/15 11:13:56;;;;;;;15.70;10.10;;;;;;;11.88;100.00;100060.00;5012763;28;20446;-80
2024/03/15 11:16:31;;;;;;;17.00;10.32;;;;;;;11.98;100.00;100059.81;5007320;28;20440;-81
2024/03/15 11:19:07;;;;;;;17.90;10.20;;;;;;;11.96;100.00;100050.31;5024390;28;20423;-80
2024/03/15 11:21:41;;;;;;;15.90;10.27;;;;;;;12.04;100.00;100060.50;5014371;28;20416;-82
2024/03/15 11:24:10;;;;;;;15.43;9.90;;;;;;;12.04;100.00;100055.88;4998163;28;20420;-81
2024/03/15 11:26:50;;;;;;;17.98;10.10;;;;;;;12.02;100.00;100049.91;4994421;28;20419;-78
2024/03/15 11:29:19;;;;;;;15.27;9.57;;;;;;;12.16;100.00;100055.34;4997480;28;20427;-80
2024/03/15 11:31:52;;;;;;;15.10;9.25;;;;;;;12.16;100.00;100055.34;5012314;28;20415;-78
2024/03/15 11:34:20;;;;;;;14.32;9.07;;;;;;;12.18;100.00;100047.69;5002263;28;21013;-80